Time;durP1;ratioP1;P1;durP2;ratioP2;P2;SDS_P1;SDS_P2;PMS_P1;PMS_P2;Temp;Humidity;BMP_temperature;BMP_pressure;BME280_temperature;BME280_humidity;BME280_pressure;Samples;Min_cycle;Max_cycle;Signal;HPM_P1;HPM_P2
2022/11/26 00:02:25;;;;;;;;;;;;;;;8.53;76.75;99237.28;7391948;19;19930;-74
2022/11/26 00:04:52;;;;;;;;;;;;;;;8.46;76.91;99247.50;7387764;19;20359;-74
2022/11/26 00:07:25;;;;;;;;;;;;;;;8.43;77.26;99255.66;7392303;19;19911;-74
2022/11/26 00:09:52;;;;;;;;;;;;;;;8.45;77.17;99259.00;7391352;19;19926;-74
2022/11/26 00:12:19;;;;;;;;;;;;;;;8.43;77.20;99258.28;7388710;19;19919;-74
2022/11/26 00:14:50;;;;;;;;;;;;;;;8.28;77.29;99252.38;7390896;19;19914;-74
2022/11/26 00:17:17;;;;;;;;;;;;;;;8.04;77.58;99254.28;7387747;19;19918;-74
2022/11/26 00:19:44;;;;;;;;;;;;;;;8.01;77.56;99265.06;7390375;19;19958;-74
2022/11/26 00:22:16;;;;;;;;;;;;;;;7.91;77.95;99265.75;7391640;19;19944;-74
2022/11/26 00:24:43;;;;;;;;;;;;;;;7.85;78.08;99271.50;7391526;19;19925;-74
2022/11/26 00:27:10;;;;;;;;;;;;;;;7.81;78.11;99264.75;7385964;19;19915;-76
2022/11/26 00:29:37;;;;;;;;;;;;;;;7.93;78.67;99264.81;7385838;19;20384;-74
2022/11/26 00:32:04;;;;;;;;;;;;;;;8.01;78.62;99265.06;7390619;19;19942;-74
2022/11/26 00:34:31;;;;;;;;;;;;;;;7.99;78.67;99272.25;7387121;19;19970;-74
2022/11/26 00:36:58;;;;;;;;;;;;;;;8.10;78.46;99269.59;7391611;19;20346;-74
2022/11/26 00:39:24;;;;;;;;;;;;;;;8.13;78.17;99272.84;7390691;19;19953;-74
2022/11/26 00:41:51;;;;;;;;;;;;;;;8.28;77.73;99280.53;7387440;19;20018;-74
2022/11/26 00:44:21;;;;;;;;;;;;;;;8.28;77.34;99280.53;7384551;19;20283;-74
2022/11/26 00:46:48;;;;;;;;;;;;;;;8.30;77.20;99287.38;7389004;19;19915;-74
2022/11/26 00:49:15;;;;;;;;;;;;;;;8.41;76.94;99291.00;7387665;19;19931;-74
2022/11/26 00:51:42;;;;;;;;;;;;;;;8.39;77.06;99296.38;7387521;19;19942;-74
2022/11/26 00:54:09;;;;;;;;;;;;;;;8.36;77.11;99296.59;7388354;19;19951;-74
2022/11/26 00:56:35;;;;;;;;;;;;;;;8.40;77.20;99300.72;7387894;19;19918;-74
2022/11/26 00:59:03;;;;;;;;;;;;;;;8.35;77.30;99306.31;7388147;19;19933;-74
2022/11/26 01:01:31;;;;;;;;;;;;;;;8.24;77.70;99301.03;7385880;19;19953;-74
2022/11/26 01:03:58;;;;;;;;;;;;;;;8.30;77.76;99303.19;7389401;19;19926;-74
2022/11/26 01:06:32;;;;;;;;;;;;;;;8.13;77.93;99307.09;7390190;19;19922;-74
2022/11/26 01:08:58;;;;;;;;;;;;;;;8.34;77.45;99320.44;7387722;19;19940;-74
2022/11/26 01:11:25;;;;;;;;;;;;;;;8.36;77.31;99318.53;7387974;19;19939;-74
2022/11/26 01:13:52;;;;;;;;;;;;;;;8.36;77.50;99323.78;7388146;19;19922;-74
2022/11/26 01:16:21;;;;;;;;;;;;;;;8.27;77.64;99331.59;7390499;19;19914;-74
2022/11/26 01:18:48;;;;;;;;;;;;;;;8.24;77.83;99334.44;7389283;19;19927;-74
2022/11/26 01:21:16;;;;;;;;;;;;;;;8.22;78.04;99336.38;7387193;19;19931;-74
2022/11/26 01:23:42;;;;;;;;;;;;;;;8.31;78.05;99336.50;7386268;19;19919;-74
2022/11/26 01:26:16;;;;;;;;;;;;;;;8.10;78.21;99341.59;7389518;19;19918;-74
2022/11/26 01:28:43;;;;;;;;;;;;;;;8.16;78.15;99345.56;7386912;19;20306;-74
2022/11/26 01:31:20;;;;;;;;;;;;;;;8.17;78.31;99349.91;7386315;19;19929;-74
2022/11/26 01:33:47;;;;;;;;;;;;;;;8.21;78.49;99347.84;7388312;19;19944;-74
2022/11/26 01:36:22;;;;;;;;;;;;;;;8.28;78.43;99347.28;7388261;19;19937;-74
2022/11/26 01:38:54;;;;;;;;;;;;;;;8.08;78.30;99358.47;7388027;19;19915;-74
2022/11/26 01:41:33;;;;;;;;;;;;;;;8.22;78.50;99355.66;7385418;19;20004;-74
2022/11/26 01:44:00;;;;;;;;;;;;;;;8.28;78.64;99357.81;7389970;19;19922;-74
2022/11/26 01:46:28;;;;;;;;;;;;;;;8.33;78.55;99360.94;7387787;19;19923;-75
2022/11/26 01:49:16;;;;;;;;;;;;;;;8.35;78.36;99369.59;7388681;19;20347;-74
2022/11/26 01:51:43;;;;;;;;;;;;;;;8.53;77.74;99374.41;7384890;19;19918;-74
2022/11/26 01:54:09;;;;;;;;;;;;;;;8.41;77.84;99368.31;7388778;19;19922;-74
2022/11/26 01:56:37;;;;;;;;;;;;;;;8.55;77.64;99383.91;7385662;19;19911;-74
2022/11/26 01:59:07;;;;;;;;;;;;;;;8.64;77.07;99378.91;7388478;19;20383;-74
2022/11/26 02:01:33;;;;;;;;;;;;;;;8.55;76.94;99380.44;7384308;19;19918;-74
2022/11/26 02:04:19;;;;;;;;;;;;;;;8.57;77.00;99382.00;7391986;19;19934;-73
2022/11/26 02:06:47;;;;;;;;;;;;;;;8.32;77.29;99369.81;7394800;19;19927;-74
2022/11/26 02:09:13;;;;;;;;;;;;;;;8.17;77.89;99376.25;7395255;19;19929;-74
2022/11/26 02:11:40;;;;;;;;;;;;;;;8.42;77.54;99379.69;7392002;19;20294;-74
2022/11/26 02:14:11;;;;;;;;;;;;;;;8.44;77.35;99383.06;7393169;19;19926;-74
2022/11/26 02:16:44;;;;;;;;;;;;;;;8.52;77.10;99378.03;7395537;19;19922;-74
2022/11/26 02:19:31;;;;;;;;;;;;;;;8.42;77.30;99379.69;7396354;19;19923;-74
2022/11/26 02:22:17;;;;;;;;;;;;;;;8.50;77.16;99390.50;7394765;19;19922;-74
2022/11/26 02:25:07;;;;;;;;;;;;;;;8.41;77.19;99391.22;7391717;19;19939;-74
2022/11/26 02:27:49;;;;;;;;;;;;;;;8.50;77.05;99387.84;7395924;19;19964;-74
2022/11/26 02:30:15;;;;;;;;;;;;;;;8.45;77.25;99396.13;7392831;19;19923;-74
2022/11/26 02:32:48;;;;;;;;;;;;;;;8.55;76.88;99399.72;7395148;19;19919;-74
2022/11/26 02:35:18;;;;;;;;;;;;;;;8.51;76.79;99405.38;7391543;19;19932;-74
2022/11/26 02:37:50;;;;;;;;;;;;;;;8.45;77.04;99413.72;7394748;19;19946;-74
2022/11/26 02:40:17;;;;;;;;;;;;;;;8.48;77.24;99414.34;7392788;19;19948;-73
2022/11/26 02:42:44;;;;;;;;;;;;;;;8.46;77.30;99412.78;7393267;19;20284;-74
2022/11/26 02:45:12;;;;;;;;;;;;;;;8.47;77.11;99420.56;7393587;19;20269;-74
2022/11/26 02:47:39;;;;;;;;;;;;;;;8.43;77.21;99434.97;7392742;19;19914;-74
2022/11/26 02:50:07;;;;;;;;;;;;;;;8.40;77.55;99429.06;7391100;19;19990;-74
2022/11/26 02:52:34;;;;;;;;;;;;;;;8.45;77.40;99437.47;7393939;19;19926;-74
2022/11/26 02:55:00;;;;;;;;;;;;;;;8.47;77.38;99438.19;7394020;19;19930;-74
2022/11/26 02:57:28;;;;;;;;;;;;;;;8.40;77.62;99442.25;7390121;19;19950;-74
2022/11/26 02:59:54;;;;;;;;;;;;;;;8.55;77.30;99444.56;7390506;19;20424;-74
2022/11/26 03:02:25;;;;;;;;;;;;;;;8.56;77.22;99443.63;7392322;19;19926;-74
2022/11/26 03:04:53;;;;;;;;;;;;;;;8.46;77.51;99455.81;7390371;19;19930;-74
2022/11/26 03:07:19;;;;;;;;;;;;;;;8.43;77.75;99456.06;7392707;19;20335;-74
2022/11/26 03:09:51;;;;;;;;;;;;;;;8.50;77.73;99451.16;7393658;19;19987;-74
2022/11/26 03:12:18;;;;;;;;;;;;;;;8.54;77.42;99458.72;7391400;19;20358;-74
2022/11/26 03:14:44;;;;;;;;;;;;;;;8.45;77.51;99455.94;7390045;19;20262;-74
2022/11/26 03:17:11;;;;;;;;;;;;;;;8.46;77.61;99466.38;7385949;19;19919;-75
2022/11/26 03:19:37;;;;;;;;;;;;;;;8.42;77.34;99464.91;7381983;19;19994;-75
2022/11/26 03:22:04;;;;;;;;;;;;;;;8.32;77.59;99462.09;7389148;19;20367;-74
2022/11/26 03:24:31;;;;;;;;;;;;;;;8.29;77.78;99477.28;7391583;19;19918;-75
2022/11/26 03:26:58;;;;;;;;;;;;;;;8.33;77.76;99473.50;7392578;19;19922;-75
2022/11/26 03:29:24;;;;;;;;;;;;;;;8.45;77.41;99469.13;7391003;19;19974;-75
2022/11/26 03:31:51;;;;;;;;;;;;;;;8.41;77.11;99470.31;7387037;19;19918;-75
2022/11/26 03:34:18;;;;;;;;;;;;;;;8.44;77.04;99472.72;7389933;19;19926;-76
2022/11/26 03:36:45;;;;;;;;;;;;;;;8.33;77.18;99469.06;7387688;19;19918;-76
2022/11/26 03:39:12;;;;;;;;;;;;;;;8.32;77.14;99475.28;7388917;19;19922;-75
2022/11/26 03:41:41;;;;;;;;;;;;;;;8.34;76.98;99473.34;7386226;19;19947;-75
2022/11/26 03:44:07;;;;;;;;;;;;;;;8.38;76.66;99478.44;7388456;19;19926;-75
2022/11/26 03:46:34;;;;;;;;;;;;;;;8.25;77.11;99478.50;7390675;19;20027;-74
2022/11/26 03:49:00;;;;;;;;;;;;;;;8.17;77.27;99486.97;7386625;19;19922;-74
2022/11/26 03:51:27;;;;;;;;;;;;;;;8.17;77.04;99479.06;7385189;19;20387;-74
2022/11/26 03:53:53;;;;;;;;;;;;;;;8.20;76.82;99486.75;7388304;19;19926;-74
2022/11/26 03:56:20;;;;;;;;;;;;;;;8.23;76.74;99486.50;7388854;19;19927;-74
2022/11/26 03:58:47;;;;;;;;;;;;;;;8.03;76.72;99487.13;7384608;19;19919;-74
2022/11/26 04:01:13;;;;;;;;;;;;;;;7.68;77.36;99487.88;7389203;19;20412;-75
2022/11/26 04:03:40;;;;;;;;;;;;;;;7.63;77.52;99487.38;7389045;19;19922;-74
2022/11/26 04:06:07;;;;;;;;;;;;;;;7.59;77.46;99485.94;7388881;19;19935;-74
2022/11/26 04:08:33;;;;;;;;;;;;;;;7.49;77.73;99488.38;7387942;19;19935;-74
2022/11/26 04:11:00;;;;;;;;;;;;;;;7.37;77.55;99483.97;7387257;19;19932;-74
2022/11/26 04:13:26;;;;;;;;;;;;;;;7.37;77.60;99489.22;7389995;19;19919;-74
2022/11/26 04:15:53;;;;;;;;;;;;;;;7.29;77.99;99492.38;7389168;19;20350;-74
2022/11/26 04:18:19;;;;;;;;;;;;;;;7.17;77.73;99488.00;7387507;19;19959;-74
2022/11/26 04:20:46;;;;;;;;;;;;;;;7.09;77.75;99493.78;7389709;19;20328;-74
2022/11/26 04:23:18;;;;;;;;;;;;;;;7.12;78.13;99492.75;7391954;19;19915;-74
2022/11/26 04:25:45;;;;;;;;;;;;;;;7.15;77.90;99498.63;7388983;19;19918;-74
2022/11/26 04:28:12;;;;;;;;;;;;;;;7.01;78.00;99490.84;7389311;19;20368;-74
2022/11/26 04:30:39;;;;;;;;;;;;;;;6.85;77.86;99492.84;7389716;19;19963;-74
2022/11/26 04:33:05;;;;;;;;;;;;;;;6.80;77.86;99487.91;7388124;19;19922;-74
2022/11/26 04:35:32;;;;;;;;;;;;;;;6.71;77.98;99488.50;7388958;19;19919;-74
2022/11/26 04:37:58;;;;;;;;;;;;;;;6.77;78.34;99485.50;7389306;19;19928;-74
2022/11/26 04:40:25;;;;;;;;;;;;;;;6.59;78.03;99498.09;7387946;19;19936;-74
2022/11/26 04:42:51;;;;;;;;;;;;;;;6.68;78.08;99493.97;7387913;19;19911;-73
2022/11/26 04:45:18;;;;;;;;;;;;;;;6.60;78.23;99499.75;7387013;19;19922;-73
2022/11/26 04:47:44;;;;;;;;;;;;;;;6.52;78.24;99504.69;7387172;19;19927;-74
2022/11/26 04:50:11;;;;;;;;;;;;;;;6.38;78.10;99508.25;7385111;19;19918;-74
2022/11/26 04:52:37;;;;;;;;;;;;;;;6.34;78.39;99509.38;7386810;19;19935;-74
2022/11/26 04:55:04;;;;;;;;;;;;;;;6.30;78.56;99505.28;7388513;19;19938;-74
2022/11/26 04:57:31;;;;;;;;;;;;;;;6.20;78.69;99510.28;7386314;19;19922;-74
2022/11/26 04:59:57;;;;;;;;;;;;;;;6.18;78.96;99516.56;7385104;19;19919;-74
2022/11/26 05:02:24;;;;;;;;;;;;;;;6.24;79.12;99517.03;7386551;19;20579;-74
2022/11/26 05:04:51;;;;;;;;;;;;;;;6.21;79.04;99519.00;7386841;19;19915;-74
2022/11/26 05:07:18;;;;;;;;;;;;;;;6.21;79.19;99514.59;7385180;19;19922;-74
2022/11/26 05:09:44;;;;;;;;;;;;;;;6.23;79.02;99512.69;7385401;19;19914;-74
2022/11/26 05:12:11;;;;;;;;;;;;;;;6.19;79.01;99518.25;7388956;19;19948;-75
2022/11/26 05:14:38;;;;;;;;;;;;;;;6.21;79.15;99519.00;7388011;19;19915;-74
2022/11/26 05:17:05;;;;;;;;;;;;;;;6.33;78.93;99526.94;7386059;19;19927;-73
2022/11/26 05:19:32;;;;;;;;;;;;;;;6.37;79.24;99531.06;7381765;19;19930;-74
2022/11/26 05:21:59;;;;;;;;;;;;;;;6.52;79.07;99529.19;7389266;19;19927;-74
2022/11/26 05:24:26;;;;;;;;;;;;;;;6.45;79.27;99527.94;7381895;19;19922;-74
2022/11/26 05:26:52;;;;;;;;;;;;;;;6.54;79.15;99529.09;7383776;19;19926;-74
2022/11/26 05:29:22;;;;;;;;;;;;;;;6.62;79.19;99526.78;7383105;19;19934;-75
2022/11/26 05:31:49;;;;;;;;;;;;;;;6.60;79.45;99524.25;7384467;19;19923;-74
2022/11/26 05:34:16;;;;;;;;;;;;;;;6.69;79.32;99527.22;7383534;19;19948;-74
2022/11/26 05:36:42;;;;;;;;;;;;;;;6.77;78.94;99527.56;7384491;19;20026;-74
2022/11/26 05:39:09;;;;;;;;;;;;;;;6.90;78.84;99525.78;7386810;19;20260;-74
2022/11/26 05:41:36;;;;;;;;;;;;;;;6.76;78.92;99542.47;7377980;19;19918;-74
2022/11/26 05:44:03;;;;;;;;;;;;;;;6.80;78.73;99543.97;7383128;19;19931;-74
2022/11/26 05:46:29;;;;;;;;;;;;;;;6.86;78.72;99547.13;7385479;19;19994;-74
2022/11/26 05:48:56;;;;;;;;;;;;;;;7.06;78.25;99545.78;7382527;19;19923;-73
2022/11/26 05:51:22;;;;;;;;;;;;;;;6.70;78.84;99548.16;7380155;19;19918;-74
2022/11/26 05:53:49;;;;;;;;;;;;;;;6.75;78.66;99553.13;7385704;19;19911;-75
2022/11/26 05:56:15;;;;;;;;;;;;;;;6.77;78.63;99548.59;7386577;19;19922;-74
2022/11/26 05:58:42;;;;;;;;;;;;;;;6.78;78.64;99560.81;7382278;19;20408;-74
2022/11/26 06:01:09;;;;;;;;;;;;;;;6.78;78.37;99556.38;7382466;19;19932;-73
2022/11/26 06:03:36;;;;;;;;;;;;;;;6.70;78.58;99561.31;7382946;19;20365;-74
2022/11/26 06:06:03;;;;;;;;;;;;;;;6.73;78.76;99555.84;7382437;19;19961;-74
2022/11/26 06:08:30;;;;;;;;;;;;;;;6.65;78.69;99557.31;7382895;19;20367;-73
2022/11/26 06:10:57;;;;;;;;;;;;;;;6.62;nan;99560.97;7385255;19;19918;-74
2022/11/26 06:13:23;;;;;;;;;;;;;;;6.66;78.63;99561.59;7383007;19;20010;-75
2022/11/26 06:15:50;;;;;;;;;;;;;;;6.74;78.51;99567.19;7380594;19;19931;-74
2022/11/26 06:18:17;;;;;;;;;;;;;;;6.75;78.02;99567.09;7383241;19;20530;-74
2022/11/26 06:20:43;;;;;;;;;;;;;;;6.78;77.94;99569.53;7386733;19;20487;-74
2022/11/26 06:23:10;;;;;;;;;;;;;;;6.80;78.16;99570.28;7380814;19;19915;-75
2022/11/26 06:25:38;;;;;;;;;;;;;;;6.65;78.27;99573.91;7381506;19;19926;-75
2022/11/26 06:28:05;;;;;;;;;;;;;;;6.70;78.24;99573.63;7383318;19;19923;-74
2022/11/26 06:30:31;;;;;;;;;;;;;;;6.71;77.87;99576.13;7383165;19;19914;-75
2022/11/26 06:32:58;;;;;;;;;;;;;;;6.47;78.14;99575.97;7382288;19;19921;-75
2022/11/26 06:35:25;;;;;;;;;;;;;;;6.33;78.12;99566.34;7383990;19;19925;-76
2022/11/26 06:37:51;;;;;;;;;;;;;;;6.30;78.25;99574.44;7385057;19;19947;-75
2022/11/26 06:40:18;;;;;;;;;;;;;;;6.17;78.35;99572.72;7382222;19;19944;-75
2022/11/26 06:42:48;;;;;;;;;;;;;;;6.20;78.49;99578.59;7384489;19;19942;-75
2022/11/26 06:45:15;;;;;;;;;;;;;;;6.16;78.45;99595.50;7382065;19;19922;-75
2022/11/26 06:47:42;;;;;;;;;;;;;;;6.18;78.57;99587.53;7385676;19;19922;-74
2022/11/26 06:50:08;;;;;;;;;;;;;;;6.22;78.70;99597.75;7391234;19;19948;-75
2022/11/26 06:52:36;;;;;;;;;;;;;;;6.29;78.67;99600.81;7392062;19;19978;-75
2022/11/26 06:55:03;;;;;;;;;;;;;;;6.20;78.63;99601.41;7389843;19;19919;-74
2022/11/26 06:57:29;;;;;;;;;;;;;;;6.34;78.69;99609.25;7385290;19;20272;-73
2022/11/26 06:59:56;;;;;;;;;;;;;;;6.39;78.87;99615.06;7391057;19;20573;-73
2022/11/26 07:02:22;;;;;;;;;;;;;;;6.50;78.73;99609.97;7386869;19;19918;-75
2022/11/26 07:04:49;;;;;;;;;;;;;;;6.48;78.70;99621.53;7388697;19;19915;-75
2022/11/26 07:07:16;;;;;;;;;;;;;;;6.54;78.65;99614.06;7390214;19;19939;-75
2022/11/26 07:09:42;;;;;;;;;;;;;;;6.62;78.53;99628.50;7392722;19;19914;-75
2022/11/26 07:12:09;;;;;;;;;;;;;;;6.75;77.91;99626.75;7391454;19;20388;-75
2022/11/26 07:14:36;;;;;;;;;;;;;;;6.77;77.94;99630.16;7387177;19;19928;-75
2022/11/26 07:17:04;;;;;;;;;;;;;;;6.60;78.38;99634.69;7392371;19;19923;-75
2022/11/26 07:19:31;;;;;;;;;;;;;;;6.70;78.63;99649.88;7390874;19;19923;-75
2022/11/26 07:21:57;;;;;;;;;;;;;;;6.89;78.41;99650.34;7385483;19;19926;-75
2022/11/26 07:24:24;;;;;;;;;;;;;;;6.95;78.38;99644.72;7390990;19;19957;-76
2022/11/26 07:26:51;;;;;;;;;;;;;;;6.90;78.57;99652.06;7393816;19;19932;-75
2022/11/26 07:29:17;;;;;;;;;;;;;;;6.90;78.74;99657.31;7396544;19;20348;-76
2022/11/26 07:31:44;;;;;;;;;;;;;;;7.04;78.88;99667.78;7394082;19;19941;-77
2022/11/26 07:34:10;;;;;;;;;;;;;;;7.28;78.45;99667.09;7392670;19;19944;-76
2022/11/26 07:36:41;;;;;;;;;;;;;;;7.25;78.48;99673.41;7392866;19;19918;-75
2022/11/26 07:39:08;;;;;;;;;;;;;;;7.30;77.78;99677.53;7391279;19;19919;-76
2022/11/26 07:41:35;;;;;;;;;;;;;;;7.28;77.81;99684.66;7386489;19;19931;-75
2022/11/26 07:44:02;;;;;;;;;;;;;;;7.38;77.86;99681.31;7390940;19;19940;-74
2022/11/26 07:46:29;;;;;;;;;;;;;;;7.54;77.73;99691.66;7386563;19;19984;-74
2022/11/26 07:48:56;;;;;;;;;;;;;;;7.61;77.82;99689.44;7386910;19;19926;-74
2022/11/26 07:51:23;;;;;;;;;;;;;;;7.64;78.11;99700.63;7386169;19;19919;-75
2022/11/26 07:53:50;;;;;;;;;;;;;;;7.72;77.92;99702.72;7387019;19;20447;-76
2022/11/26 07:56:17;;;;;;;;;;;;;;;7.86;77.80;99707.88;7384920;19;19956;-75
2022/11/26 07:58:44;;;;;;;;;;;;;;;7.93;77.82;99699.56;7386479;19;19944;-75
2022/11/26 08:01:14;;;;;;;;;;;;;;;7.96;78.32;99699.34;7384596;19;19922;-76
2022/11/26 08:03:42;;;;;;;;;;;;;;;7.98;78.58;99697.44;7382097;19;19927;-75
2022/11/26 08:06:10;;;;;;;;;;;;;;;8.14;78.23;99704.19;7383964;19;19955;-74
2022/11/26 08:08:37;;;;;;;;;;;;;;;8.15;78.16;99697.09;7386948;19;19970;-76
2022/11/26 08:11:08;;;;;;;;;;;;;;;8.18;77.74;99702.16;7383748;19;20260;-75
2022/11/26 08:13:35;;;;;;;;;;;;;;;8.10;78.24;99707.97;7391447;19;19915;-75
2022/11/26 08:16:02;;;;;;;;;;;;;;;8.13;78.21;99706.91;7392900;19;20227;-75
2022/11/26 08:18:29;;;;;;;;;;;;;;;8.31;78.04;99710.06;7383935;19;19919;-74
2022/11/26 08:20:56;;;;;;;;;;;;;;;8.28;77.95;99711.09;7385811;19;19915;-75
2022/11/26 08:23:23;;;;;;;;;;;;;;;8.18;77.97;99710.06;7388924;19;20338;-75
2022/11/26 08:25:50;;;;;;;;;;;;;;;8.18;78.54;99709.22;7391208;19;19931;-75
2022/11/26 08:28:36;;;;;;;;;;;;;;;8.43;78.29;99713.66;7389513;19;19915;-75
2022/11/26 08:31:05;;;;;;;;;;;;;;;8.48;78.23;99711.53;7382582;19;19924;-75
2022/11/26 08:33:32;;;;;;;;;;;;;;;8.53;78.03;99718.16;7383471;19;19940;-75
2022/11/26 08:35:59;;;;;;;;;;;;;;;8.67;77.28;99714.53;7383864;19;20258;-74
2022/11/26 08:38:33;;;;;;;;;;;;;;;8.75;76.77;99722.72;7383686;19;20271;-75
2022/11/26 08:41:00;;;;;;;;;;;;;;;8.83;76.61;99718.69;7383668;19;20317;-74
2022/11/26 08:43:27;;;;;;;;;;;;;;;8.81;76.51;99723.25;7385714;19;19915;-75
2022/11/26 08:46:15;;;;;;;;;;;;;;;8.87;76.34;99730.69;7386088;19;20042;-74
2022/11/26 08:48:44;;;;;;;;;;;;;;;8.82;76.38;99728.41;7387068;19;20144;-74
2022/11/26 08:51:16;;;;;;;;;;;;;;;8.84;76.74;99730.94;7386502;19;20341;-75
2022/11/26 08:53:49;;;;;;;;;;;;;;;8.67;76.79;99738.28;7386672;19;19956;-75
2022/11/26 08:56:16;;;;;;;;;;;;;;;8.72;77.17;99733.50;7384662;19;19935;-75
2022/11/26 08:58:47;;;;;;;;;;;;;;;8.86;76.73;99731.66;7380692;19;20432;-76
2022/11/26 09:01:15;;;;;;;;;;;;;;;8.97;76.34;99739.63;7382918;19;20505;-75
2022/11/26 09:03:42;;;;;;;;;;;;;;;8.93;76.31;99739.03;7384114;19;19910;-74
2022/11/26 09:06:09;;;;;;;;;;;;;;;8.76;76.15;99734.97;7383714;19;19923;-75
2022/11/26 09:11:22;;;;;;;;;;;;;;;8.59;77.19;99743.25;7368212;19;19926;-74
2022/11/26 09:13:49;;;;;;;;;;;;;;;8.72;77.37;99736.16;7342535;19;19918;-73
2022/11/26 09:16:15;;;;;;;;;;;;;;;8.90;76.89;99733.13;7381298;19;20240;-73
2022/11/26 09:18:42;;;;;;;;;;;;;;;8.93;76.36;99732.91;7383977;19;19933;-73
2022/11/26 09:21:09;;;;;;;;;;;;;;;8.82;76.65;99727.56;7382540;19;19932;-74
2022/11/26 09:23:36;;;;;;;;;;;;;;;8.87;76.19;99723.63;7382734;19;22421;-73
2022/11/26 09:26:03;;;;;;;;;;;;;;;8.93;76.54;99717.09;7384985;19;19936;-75
2022/11/26 09:28:29;;;;;;;;;;;;;;;9.05;76.29;99716.16;7385975;19;19927;-74
2022/11/26 09:31:03;;;;;;;;;;;;;;;9.16;76.46;99718.88;7382179;19;19919;-73
2022/11/26 09:33:29;;;;;;;;;;;;;;;9.26;75.85;99719.00;7380685;19;20498;-73
2022/11/26 09:36:06;;;;;;;;;;;;;;;9.36;75.70;99724.44;7384264;19;19918;-75
2022/11/26 09:38:34;;;;;;;;;;;;;;;9.37;75.92;99721.72;7378280;19;19915;-74
2022/11/26 09:41:10;;;;;;;;;;;;;;;9.44;76.07;99722.06;7381236;19;19982;-73
2022/11/26 09:43:37;;;;;;;;;;;;;;;9.42;75.44;99719.53;7381914;19;19922;-74
2022/11/26 09:46:04;;;;;;;;;;;;;;;9.14;73.63;99728.69;7384379;19;19930;-74
2022/11/26 09:48:31;;;;;;;;;;;;;;;9.37;73.81;99727.00;7383258;19;19960;-74
2022/11/26 09:51:06;;;;;;;;;;;;;;;9.27;73.78;99730.41;7383985;19;20378;-74
2022/11/26 09:53:40;;;;;;;;;;;;;;;9.41;73.74;99725.78;7384144;19;19922;-74
2022/11/26 09:56:12;;;;;;;;;;;;;;;9.48;75.00;99733.25;7383346;19;20400;-74
2022/11/26 09:59:00;;;;;;;;;;;;;;;9.59;74.58;99728.84;7385137;19;20363;-74
2022/11/26 10:01:27;;;;;;;;;;;;;;;9.51;74.62;99733.88;7382975;19;20286;-73
2022/11/26 10:03:54;;;;;;;;;;;;;;;9.62;74.36;99736.53;7376649;19;19930;-73
2022/11/26 10:06:23;;;;;;;;;;;;;;;9.40;73.92;99734.69;7379927;19;19996;-74
2022/11/26 10:09:08;;;;;;;;;;;;;;;9.65;74.20;99736.31;7387454;19;20355;-74
2022/11/26 10:11:37;;;;;;;;;;;;;;;9.83;72.24;99733.22;7381244;19;19951;-74
2022/11/26 10:14:04;;;;;;;;;;;;;;;9.91;73.56;99730.84;7383814;19;19926;-73
2022/11/26 10:16:39;;;;;;;;;;;;;;;9.98;72.90;99724.13;7385355;19;19939;-74
2022/11/26 10:19:12;;;;;;;;;;;;;;;10.02;72.93;99728.19;7381046;19;19933;-74
2022/11/26 10:21:39;;;;;;;;;;;;;;;10.11;73.28;99735.44;7375627;19;19927;-74
2022/11/26 10:24:31;;;;;;;;;;;;;;;10.05;73.45;99733.25;7392272;19;20266;-74
2022/11/26 10:27:03;;;;;;;;;;;;;;;10.08;72.96;99727.75;7388326;19;20505;-74
2022/11/26 10:29:34;;;;;;;;;;;;;;;10.20;73.16;99727.72;7388155;19;19918;-74
2022/11/26 10:32:03;;;;;;;;;;;;;;;10.31;72.91;99733.03;7388148;19;19919;-74
2022/11/26 10:34:36;;;;;;;;;;;;;;;10.20;73.16;99735.66;7388185;19;21166;-74
2022/11/26 10:37:05;;;;;;;;;;;;;;;10.16;72.68;99729.75;7385322;19;19994;-75
2022/11/26 10:39:31;;;;;;;;;;;;;;;10.46;71.61;99725.72;7385879;19;19971;-74
2022/11/26 10:42:16;;;;;;;;;;;;;;;10.52;72.05;99730.50;7386435;19;19936;-74
2022/11/26 10:44:43;;;;;;;;;;;;;;;10.55;72.25;99728.44;7390636;19;19919;-73
2022/11/26 10:47:18;;;;;;;;;;;;;;;10.74;71.88;99735.78;7390916;19;20391;-73
2022/11/26 10:49:45;;;;;;;;;;;;;;;10.75;72.42;99732.16;7387911;19;19914;-73
2022/11/26 10:52:11;;;;;;;;;;;;;;;10.77;71.63;99718.81;7387424;19;20285;-73
2022/11/26 10:54:39;;;;;;;;;;;;;;;10.88;70.85;99725.88;7384166;19;20014;-73
2022/11/26 10:57:14;;;;;;;;;;;;;;;10.98;68.60;99730.31;7385243;19;21057;-74
2022/11/26 10:59:49;;;;;;;;;;;;;;;10.77;70.04;99727.59;7376667;19;19919;-75
2022/11/26 11:02:18;;;;;;;;;;;;;;;10.80;69.53;99726.50;7370321;19;19922;-74
2022/11/26 11:04:47;;;;;;;;;;;;;;;10.76;70.47;99712.66;7377822;19;19953;-75
2022/11/26 11:07:29;;;;;;;;;;;;;;;10.68;68.04;99716.88;7383730;19;19931;-73
2022/11/26 11:10:05;;;;;;;;;;;;;;;10.84;68.04;99714.69;7379421;19;21714;-74
2022/11/26 11:12:31;;;;;;;;;;;;;;;10.56;68.61;99724.03;7385644;19;19915;-73
2022/11/26 11:15:11;;;;;;;;;;;;;;;10.71;69.49;99719.28;7385126;19;20266;-74
2022/11/26 11:17:38;;;;;;;;;;;;;;;10.91;68.91;99720.34;7388219;19;19943;-73
2022/11/26 11:20:14;;;;;;;;;;;;;;;10.96;68.80;99712.84;7387247;19;19948;-73
2022/11/26 11:22:44;;;;;;;;;;;;;;;10.88;68.01;99710.00;7384797;19;19918;-75
2022/11/26 11:25:21;;;;;;;;;;;;;;;10.75;69.10;99708.34;7389760;19;20295;-73
2022/11/26 11:27:48;;;;;;;;;;;;;;;10.92;68.85;99706.94;7383412;19;20454;-73
2022/11/26 11:30:24;;;;;;;;;;;;;;;11.15;69.64;99717.47;7386445;19;20363;-73
2022/11/26 11:32:53;;;;;;;;;;;;;;;11.03;70.39;99710.53;7386387;19;19918;-73
2022/11/26 11:35:21;;;;;;;;;;;;;;;11.01;68.69;99713.31;7381390;19;19944;-73
2022/11/26 11:37:50;;;;;;;;;;;;;;;11.11;67.94;99705.44;7384974;19;19938;-72
2022/11/26 11:40:24;;;;;;;;;;;;;;;11.13;69.46;99706.16;7382704;19;20863;-73
2022/11/26 11:42:52;;;;;;;;;;;;;;;11.39;67.04;99704.84;7387712;19;19940;-73
2022/11/26 11:45:21;;;;;;;;;;;;;;;11.39;66.04;99702.19;7383975;19;19923;-73
2022/11/26 11:47:49;;;;;;;;;;;;;;;11.42;65.41;99699.28;7382205;19;19919;-74
2022/11/26 11:50:20;;;;;;;;;;;;;;;11.11;66.55;99692.19;7381520;19;19930;-74
2022/11/26 11:52:53;;;;;;;;;;;;;;;11.17;66.33;99695.19;7386272;19;19922;-74
2022/11/26 11:55:20;;;;;;;;;;;;;;;11.27;66.10;99692.63;7387727;19;19958;-73
2022/11/26 11:57:46;;;;;;;;;;;;;;;11.36;66.18;99691.84;7380943;19;19918;-73
2022/11/26 12:00:13;;;;;;;;;;;;;;;11.51;64.80;99686.25;7383699;19;19923;-74
2022/11/26 12:02:55;;;;;;;;;;;;;;;11.41;64.35;99691.47;7384215;19;19998;-74
2022/11/26 12:05:25;;;;;;;;;;;;;;;11.22;66.52;99686.88;7380594;19;19919;-73
2022/11/26 12:07:52;;;;;;;;;;;;;;;11.46;65.71;99689.28;7384507;19;19926;-74
2022/11/26 12:10:22;;;;;;;;;;;;;;;11.30;65.79;99684.41;7384677;19;19927;-73
2022/11/26 12:12:51;;;;;;;;;;;;;;;11.43;66.62;99682.41;7385571;19;19959;-73
2022/11/26 12:15:27;;;;;;;;;;;;;;;11.76;66.18;99677.03;7378998;19;19930;-73
2022/11/26 12:18:02;;;;;;;;;;;;;;;11.83;66.02;99672.88;7384932;19;19923;-73
2022/11/26 12:20:29;;;;;;;;;;;;;;;11.83;65.96;99673.72;7384520;19;19927;-73
2022/11/26 12:23:04;;;;;;;;;;;;;;;11.95;64.78;99676.31;7388378;19;19922;-73
2022/11/26 12:25:38;;;;;;;;;;;;;;;11.61;66.15;99677.38;7382888;19;19927;-73
2022/11/26 12:28:13;;;;;;;;;;;;;;;11.72;65.63;99679.13;7385726;19;19919;-73
2022/11/26 12:31:00;;;;;;;;;;;;;;;11.59;64.77;99670.53;7384538;19;19950;-73
2022/11/26 12:33:42;;;;;;;;;;;;;;;11.58;64.62;99679.44;7382371;19;20297;-73
2022/11/26 12:36:13;;;;;;;;;;;;;;;11.61;66.06;99679.16;7380146;19;19921;-73
2022/11/26 12:38:42;;;;;;;;;;;;;;;11.70;65.27;99691.66;7382253;19;19919;-73
2022/11/26 12:41:10;;;;;;;;;;;;;;;11.75;64.67;99686.81;7385239;19;19914;-73
2022/11/26 12:43:48;;;;;;;;;;;;;;;11.94;65.50;99685.25;7382930;19;19923;-73
2022/11/26 12:46:18;;;;;;;;;;;;;;;12.05;64.49;99677.19;7380467;19;19918;-73
2022/11/26 12:48:48;;;;;;;;;;;;;;;12.05;64.15;99675.38;7379233;19;19933;-73
2022/11/26 12:51:28;;;;;;;;;;;;;;;12.20;63.06;99665.25;7384597;19;19922;-73
2022/11/26 12:54:31;;;;;;;;;;;;;;;12.18;64.42;99651.28;7377405;19;19948;-74
2022/11/26 12:56:59;;;;;;;;;;;;;;;12.05;64.77;99658.63;7379206;19;19922;-73
2022/11/26 12:59:34;;;;;;;;;;;;;;;11.84;63.15;99656.00;7378365;19;19927;-73
2022/11/26 13:02:08;;;;;;;;;;;;;;;11.74;62.47;99657.75;7380603;19;19948;-73
2022/11/26 13:04:34;;;;;;;;;;;;;;;11.71;62.75;99664.16;7378813;19;19922;-73
2022/11/26 13:07:07;;;;;;;;;;;;;;;11.54;63.07;99660.31;7381110;19;20583;-73
2022/11/26 13:09:37;;;;;;;;;;;;;;;11.39;65.34;99656.31;7385430;19;20318;-73